sensor_id;sensor_type;location;lat;lon;timestamp;P1;durP1;ratioP1;P2;durP2;ratioP2
727;SDS011;347;48.780;9.158;2024-02-14T00:01:52;7.83;;;7.37;;
727;SDS011;347;48.780;9.158;2024-02-14T00:04:18;7.77;;;7.27;;
727;SDS011;347;48.780;9.158;2024-02-14T00:06:44;8.30;;;7.80;;
727;SDS011;347;48.780;9.158;2024-02-14T00:09:10;8.17;;;7.67;;
727;SDS011;347;48.780;9.158;2024-02-14T00:11:36;7.83;;;7.30;;
727;SDS011;347;48.780;9.158;2024-02-14T00:14:02;8.47;;;7.97;;
727;SDS011;347;48.780;9.158;2024-02-14T00:16:27;8.37;;;7.97;;
727;SDS011;347;48.780;9.158;2024-02-14T00:18:55;8.00;;;7.53;;
727;SDS011;347;48.780;9.158;2024-02-14T00:21:29;8.33;;;7.93;;
727;SDS011;347;48.780;9.158;2024-02-14T00:24:02;8.60;;;8.10;;
727;SDS011;347;48.780;9.158;2024-02-14T00:26:28;8.30;;;7.60;;
727;SDS011;347;48.780;9.158;2024-02-14T00:28:53;8.30;;;7.80;;
727;SDS011;347;48.780;9.158;2024-02-14T00:31:19;7.70;;;7.20;;
727;SDS011;347;48.780;9.158;2024-02-14T00:33:45;7.73;;;7.33;;
727;SDS011;347;48.780;9.158;2024-02-14T00:36:11;8.33;;;7.80;;
727;SDS011;347;48.780;9.158;2024-02-14T00:38:37;7.60;;;7.17;;
727;SDS011;347;48.780;9.158;2024-02-14T00:41:02;8.20;;;7.60;;
727;SDS011;347;48.780;9.158;2024-02-14T00:43:28;8.97;;;8.37;;
727;SDS011;347;48.780;9.158;2024-02-14T00:45:54;7.73;;;7.20;;
727;SDS011;347;48.780;9.158;2024-02-14T00:48:21;8.80;;;8.20;;
727;SDS011;347;48.780;9.158;2024-02-14T00:50:50;8.37;;;7.77;;
727;SDS011;347;48.780;9.158;2024-02-14T00:53:17;8.43;;;7.93;;
727;SDS011;347;48.780;9.158;2024-02-14T00:55:42;8.13;;;7.73;;
727;SDS011;347;48.780;9.158;2024-02-14T00:58:08;8.53;;;7.20;;
727;SDS011;347;48.780;9.158;2024-02-14T01:00:41;8.33;;;7.63;;
727;SDS011;347;48.780;9.158;2024-02-14T01:03:08;8.60;;;8.00;;
727;SDS011;347;48.780;9.158;2024-02-14T01:05:40;7.50;;;7.10;;
727;SDS011;347;48.780;9.158;2024-02-14T01:08:22;8.00;;;7.53;;
727;SDS011;347;48.780;9.158;2024-02-14T01:11:21;8.43;;;7.93;;
727;SDS011;347;48.780;9.158;2024-02-14T01:14:06;7.60;;;7.10;;
727;SDS011;347;48.780;9.158;2024-02-14T01:16:46;8.20;;;7.70;;
727;SDS011;347;48.780;9.158;2024-02-14T01:19:16;7.93;;;7.50;;
727;SDS011;347;48.780;9.158;2024-02-14T01:21:44;8.70;;;7.93;;
727;SDS011;347;48.780;9.158;2024-02-14T01:24:13;8.37;;;7.67;;
727;SDS011;347;48.780;9.158;2024-02-14T01:26:42;8.30;;;7.83;;
727;SDS011;347;48.780;9.158;2024-02-14T01:29:20;8.90;;;8.50;;
727;SDS011;347;48.780;9.158;2024-02-14T01:31:47;8.20;;;7.77;;
727;SDS011;347;48.780;9.158;2024-02-14T01:34:16;8.20;;;7.70;;
727;SDS011;347;48.780;9.158;2024-02-14T01:36:43;7.87;;;7.47;;
727;SDS011;347;48.780;9.158;2024-02-14T01:39:12;7.40;;;7.10;;
727;SDS011;347;48.780;9.158;2024-02-14T01:41:38;8.50;;;8.00;;
727;SDS011;347;48.780;9.158;2024-02-14T01:44:17;9.13;;;8.63;;
727;SDS011;347;48.780;9.158;2024-02-14T01:46:45;8.33;;;7.83;;
727;SDS011;347;48.780;9.158;2024-02-14T01:49:13;8.40;;;7.70;;
727;SDS011;347;48.780;9.158;2024-02-14T01:51:42;8.43;;;8.03;;
727;SDS011;347;48.780;9.158;2024-02-14T01:54:10;7.50;;;7.10;;
727;SDS011;347;48.780;9.158;2024-02-14T01:56:38;7.97;;;7.57;;
727;SDS011;347;48.780;9.158;2024-02-14T01:59:10;7.47;;;7.17;;
727;SDS011;347;48.780;9.158;2024-02-14T02:01:46;8.60;;;8.07;;
727;SDS011;347;48.780;9.158;2024-02-14T02:04:16;8.77;;;8.37;;
727;SDS011;347;48.780;9.158;2024-02-14T02:06:47;9.00;;;8.30;;
727;SDS011;347;48.780;9.158;2024-02-14T02:09:35;8.37;;;7.87;;
727;SDS011;347;48.780;9.158;2024-02-14T02:12:30;8.60;;;8.00;;
727;SDS011;347;48.780;9.158;2024-02-14T02:14:56;8.43;;;7.90;;
727;SDS011;347;48.780;9.158;2024-02-14T02:17:22;9.33;;;8.73;;
727;SDS011;347;48.780;9.158;2024-02-14T02:19:49;9.50;;;8.90;;
727;SDS011;347;48.780;9.158;2024-02-14T02:22:15;8.53;;;8.10;;
727;SDS011;347;48.780;9.158;2024-02-14T02:24:44;9.00;;;8.40;;
727;SDS011;347;48.780;9.158;2024-02-14T02:27:12;8.40;;;8.00;;
727;SDS011;347;48.780;9.158;2024-02-14T02:29:41;7.80;;;7.40;;
727;SDS011;347;48.780;9.158;2024-02-14T02:32:07;7.83;;;7.33;;
727;SDS011;347;48.780;9.158;2024-02-14T02:34:34;8.83;;;8.33;;
727;SDS011;347;48.780;9.158;2024-02-14T02:37:03;8.40;;;8.00;;
727;SDS011;347;48.780;9.158;2024-02-14T02:39:32;9.47;;;8.97;;
727;SDS011;347;48.780;9.158;2024-02-14T02:41:59;8.70;;;8.10;;
727;SDS011;347;48.780;9.158;2024-02-14T02:44:24;9.43;;;8.63;;
727;SDS011;347;48.780;9.158;2024-02-14T02:46:50;9.30;;;8.90;;
727;SDS011;347;48.780;9.158;2024-02-14T02:49:17;9.00;;;8.30;;
727;SDS011;347;48.780;9.158;2024-02-14T02:51:43;8.50;;;7.90;;
727;SDS011;347;48.780;9.158;2024-02-14T02:54:09;8.47;;;8.00;;
727;SDS011;347;48.780;9.158;2024-02-14T02:56:37;8.80;;;8.30;;
727;SDS011;347;48.780;9.158;2024-02-14T02:59:02;8.10;;;7.60;;
727;SDS011;347;48.780;9.158;2024-02-14T03:01:28;9.10;;;8.50;;
727;SDS011;347;48.780;9.158;2024-02-14T03:04:03;8.93;;;8.43;;
727;SDS011;347;48.780;9.158;2024-02-14T03:06:30;8.97;;;8.47;;
727;SDS011;347;48.780;9.158;2024-02-14T03:08:55;9.93;;;9.40;;
727;SDS011;347;48.780;9.158;2024-02-14T03:14:44;9.50;;;8.90;;
727;SDS011;347;48.780;9.158;2024-02-14T03:17:09;9.77;;;9.17;;
727;SDS011;347;48.780;9.158;2024-02-14T03:19:35;9.77;;;9.17;;
727;SDS011;347;48.780;9.158;2024-02-14T03:22:03;8.97;;;8.47;;
727;SDS011;347;48.780;9.158;2024-02-14T03:24:33;9.43;;;8.93;;
727;SDS011;347;48.780;9.158;2024-02-14T03:27:02;9.40;;;8.90;;
727;SDS011;347;48.780;9.158;2024-02-14T03:29:29;9.00;;;8.60;;
727;SDS011;347;48.780;9.158;2024-02-14T03:31:55;9.53;;;8.83;;
727;SDS011;347;48.780;9.158;2024-02-14T03:34:23;9.17;;;8.67;;
727;SDS011;347;48.780;9.158;2024-02-14T03:36:50;9.13;;;8.63;;
727;SDS011;347;48.780;9.158;2024-02-14T03:39:15;9.37;;;8.90;;
727;SDS011;347;48.780;9.158;2024-02-14T03:41:42;10.17;;;9.67;;
727;SDS011;347;48.780;9.158;2024-02-14T03:44:07;8.63;;;8.00;;
727;SDS011;347;48.780;9.158;2024-02-14T03:46:34;9.70;;;8.50;;
727;SDS011;347;48.780;9.158;2024-02-14T03:49:00;9.43;;;8.90;;
727;SDS011;347;48.780;9.158;2024-02-14T03:51:29;9.93;;;9.10;;
727;SDS011;347;48.780;9.158;2024-02-14T03:53:55;8.77;;;8.37;;
727;SDS011;347;48.780;9.158;2024-02-14T03:56:36;9.63;;;9.03;;
727;SDS011;347;48.780;9.158;2024-02-14T03:59:02;9.30;;;8.87;;
727;SDS011;347;48.780;9.158;2024-02-14T04:01:30;9.50;;;8.80;;
727;SDS011;347;48.780;9.158;2024-02-14T04:03:56;9.40;;;8.90;;
727;SDS011;347;48.780;9.158;2024-02-14T04:06:21;8.97;;;8.47;;
727;SDS011;347;48.780;9.158;2024-02-14T04:08:47;9.20;;;8.70;;
727;SDS011;347;48.780;9.158;2024-02-14T04:11:14;10.20;;;9.60;;
727;SDS011;347;48.780;9.158;2024-02-14T04:13:39;8.43;;;7.90;;
727;SDS011;347;48.780;9.158;2024-02-14T04:16:05;8.50;;;8.00;;
727;SDS011;347;48.780;9.158;2024-02-14T04:18:31;9.07;;;8.50;;
727;SDS011;347;48.780;9.158;2024-02-14T04:20:56;9.03;;;8.50;;
727;SDS011;347;48.780;9.158;2024-02-14T04:23:22;9.00;;;8.50;;
727;SDS011;347;48.780;9.158;2024-02-14T04:25:49;8.80;;;8.30;;
727;SDS011;347;48.780;9.158;2024-02-14T04:28:15;9.30;;;8.90;;
727;SDS011;347;48.780;9.158;2024-02-14T04:30:40;9.40;;;8.90;;
727;SDS011;347;48.780;9.158;2024-02-14T04:33:06;8.27;;;7.93;;
727;SDS011;347;48.780;9.158;2024-02-14T04:35:33;8.63;;;8.23;;
727;SDS011;347;48.780;9.158;2024-02-14T04:37:58;9.00;;;8.50;;
727;SDS011;347;48.780;9.158;2024-02-14T04:40:24;9.17;;;8.50;;
727;SDS011;347;48.780;9.158;2024-02-14T04:42:49;8.57;;;8.17;;
727;SDS011;347;48.780;9.158;2024-02-14T04:45:15;8.03;;;7.70;;
727;SDS011;347;48.780;9.158;2024-02-14T04:47:41;8.90;;;8.50;;
727;SDS011;347;48.780;9.158;2024-02-14T04:50:07;8.90;;;8.33;;
727;SDS011;347;48.780;9.158;2024-02-14T04:52:33;7.70;;;7.40;;
727;SDS011;347;48.780;9.158;2024-02-14T04:54:59;9.43;;;8.90;;
727;SDS011;347;48.780;9.158;2024-02-14T04:57:24;7.80;;;7.33;;
727;SDS011;347;48.780;9.158;2024-02-14T04:59:50;8.00;;;7.50;;
727;SDS011;347;48.780;9.158;2024-02-14T05:02:15;7.80;;;7.40;;
727;SDS011;347;48.780;9.158;2024-02-14T05:04:41;9.10;;;8.50;;
727;SDS011;347;48.780;9.158;2024-02-14T05:07:06;8.50;;;8.00;;
727;SDS011;347;48.780;9.158;2024-02-14T05:09:32;9.03;;;8.33;;
727;SDS011;347;48.780;9.158;2024-02-14T05:11:58;8.10;;;7.70;;
727;SDS011;347;48.780;9.158;2024-02-14T05:14:23;9.17;;;8.57;;
727;SDS011;347;48.780;9.158;2024-02-14T05:16:49;8.33;;;7.90;;
727;SDS011;347;48.780;9.158;2024-02-14T05:19:14;9.50;;;8.97;;
727;SDS011;347;48.780;9.158;2024-02-14T05:21:40;9.27;;;8.63;;
727;SDS011;347;48.780;9.158;2024-02-14T05:24:06;9.23;;;8.67;;
727;SDS011;347;48.780;9.158;2024-02-14T05:26:31;9.30;;;8.60;;
727;SDS011;347;48.780;9.158;2024-02-14T05:28:57;9.10;;;8.70;;
727;SDS011;347;48.780;9.158;2024-02-14T05:31:24;9.53;;;9.10;;
727;SDS011;347;48.780;9.158;2024-02-14T05:33:49;8.50;;;8.13;;
727;SDS011;347;48.780;9.158;2024-02-14T05:36:15;8.43;;;8.03;;
727;SDS011;347;48.780;9.158;2024-02-14T05:38:40;9.20;;;8.60;;
727;SDS011;347;48.780;9.158;2024-02-14T05:41:06;8.57;;;8.03;;
727;SDS011;347;48.780;9.158;2024-02-14T05:43:32;7.80;;;7.30;;
727;SDS011;347;48.780;9.158;2024-02-14T05:45:59;7.47;;;6.97;;
727;SDS011;347;48.780;9.158;2024-02-14T05:48:25;7.30;;;6.90;;
727;SDS011;347;48.780;9.158;2024-02-14T05:50:52;9.07;;;8.57;;
727;SDS011;347;48.780;9.158;2024-02-14T05:53:17;8.00;;;7.57;;
727;SDS011;347;48.780;9.158;2024-02-14T05:55:43;7.77;;;7.40;;
727;SDS011;347;48.780;9.158;2024-02-14T05:58:09;8.60;;;8.10;;
727;SDS011;347;48.780;9.158;2024-02-14T06:00:34;9.03;;;8.00;;
727;SDS011;347;48.780;9.158;2024-02-14T06:03:00;8.60;;;8.20;;
727;SDS011;347;48.780;9.158;2024-02-14T06:05:27;9.57;;;8.93;;
727;SDS011;347;48.780;9.158;2024-02-14T06:07:52;8.90;;;8.40;;
727;SDS011;347;48.780;9.158;2024-02-14T06:10:18;8.40;;;7.90;;
727;SDS011;347;48.780;9.158;2024-02-14T06:12:43;8.57;;;8.17;;
727;SDS011;347;48.780;9.158;2024-02-14T06:15:09;8.60;;;8.10;;
727;SDS011;347;48.780;9.158;2024-02-14T06:17:35;8.80;;;8.30;;
727;SDS011;347;48.780;9.158;2024-02-14T06:20:00;8.73;;;8.23;;
727;SDS011;347;48.780;9.158;2024-02-14T06:22:30;8.80;;;8.23;;
727;SDS011;347;48.780;9.158;2024-02-14T06:24:57;9.20;;;8.73;;
727;SDS011;347;48.780;9.158;2024-02-14T06:27:23;8.20;;;7.70;;
727;SDS011;347;48.780;9.158;2024-02-14T06:29:48;7.20;;;6.80;;
727;SDS011;347;48.780;9.158;2024-02-14T06:32:14;8.10;;;7.40;;
727;SDS011;347;48.780;9.158;2024-02-14T06:34:39;7.90;;;7.30;;
727;SDS011;347;48.780;9.158;2024-02-14T06:37:05;8.73;;;8.20;;
727;SDS011;347;48.780;9.158;2024-02-14T06:39:31;7.60;;;7.20;;
727;SDS011;347;48.780;9.158;2024-02-14T06:41:56;8.30;;;7.90;;
727;SDS011;347;48.780;9.158;2024-02-14T06:44:22;8.40;;;7.80;;
727;SDS011;347;48.780;9.158;2024-02-14T06:46:48;8.73;;;8.13;;
727;SDS011;347;48.780;9.158;2024-02-14T06:49:15;8.13;;;7.73;;
727;SDS011;347;48.780;9.158;2024-02-14T06:51:41;8.10;;;7.60;;
727;SDS011;347;48.780;9.158;2024-02-14T06:54:06;7.30;;;7.00;;
727;SDS011;347;48.780;9.158;2024-02-14T06:56:32;7.77;;;7.40;;
727;SDS011;347;48.780;9.158;2024-02-14T06:58:58;8.27;;;7.97;;
727;SDS011;347;48.780;9.158;2024-02-14T07:01:25;7.10;;;6.70;;
727;SDS011;347;48.780;9.158;2024-02-14T07:03:52;8.63;;;8.23;;
727;SDS011;347;48.780;9.158;2024-02-14T07:06:18;8.23;;;7.73;;
727;SDS011;347;48.780;9.158;2024-02-14T07:08:44;8.90;;;8.30;;
727;SDS011;347;48.780;9.158;2024-02-14T07:11:13;8.50;;;8.10;;
727;SDS011;347;48.780;9.158;2024-02-14T07:13:40;7.23;;;6.83;;
727;SDS011;347;48.780;9.158;2024-02-14T07:16:06;7.67;;;7.27;;
727;SDS011;347;48.780;9.158;2024-02-14T07:18:31;7.43;;;7.03;;
727;SDS011;347;48.780;9.158;2024-02-14T07:20:58;7.40;;;6.70;;
727;SDS011;347;48.780;9.158;2024-02-14T07:23:24;7.73;;;7.13;;
727;SDS011;347;48.780;9.158;2024-02-14T07:25:51;8.63;;;7.93;;
727;SDS011;347;48.780;9.158;2024-02-14T07:28:16;8.50;;;7.90;;
727;SDS011;347;48.780;9.158;2024-02-14T07:30:42;8.00;;;7.50;;
727;SDS011;347;48.780;9.158;2024-02-14T07:33:08;8.57;;;7.73;;
727;SDS011;347;48.780;9.158;2024-02-14T07:35:37;7.70;;;7.03;;
727;SDS011;347;48.780;9.158;2024-02-14T07:38:03;7.67;;;7.17;;
727;SDS011;347;48.780;9.158;2024-02-14T07:40:29;8.10;;;7.53;;
727;SDS011;347;48.780;9.158;2024-02-14T07:42:56;8.17;;;7.77;;
727;SDS011;347;48.780;9.158;2024-02-14T07:45:22;8.80;;;8.23;;
727;SDS011;347;48.780;9.158;2024-02-14T07:47:49;7.90;;;7.40;;
727;SDS011;347;48.780;9.158;2024-02-14T07:50:14;7.57;;;7.07;;
727;SDS011;347;48.780;9.158;2024-02-14T07:52:41;8.40;;;7.77;;
727;SDS011;347;48.780;9.158;2024-02-14T07:55:08;7.93;;;7.50;;
727;SDS011;347;48.780;9.158;2024-02-14T07:57:37;7.40;;;6.93;;
727;SDS011;347;48.780;9.158;2024-02-14T08:00:03;7.27;;;6.97;;
727;SDS011;347;48.780;9.158;2024-02-14T08:02:30;8.90;;;8.40;;
727;SDS011;347;48.780;9.158;2024-02-14T08:04:56;8.30;;;7.83;;
727;SDS011;347;48.780;9.158;2024-02-14T08:07:22;9.00;;;8.30;;
727;SDS011;347;48.780;9.158;2024-02-14T08:09:47;9.90;;;8.93;;
727;SDS011;347;48.780;9.158;2024-02-14T08:12:13;10.10;;;8.00;;
727;SDS011;347;48.780;9.158;2024-02-14T08:14:38;8.57;;;7.90;;
727;SDS011;347;48.780;9.158;2024-02-14T08:17:04;8.13;;;7.40;;
727;SDS011;347;48.780;9.158;2024-02-14T08:19:30;7.90;;;7.50;;
727;SDS011;347;48.780;9.158;2024-02-14T08:21:56;7.43;;;7.03;;
727;SDS011;347;48.780;9.158;2024-02-14T08:24:25;7.70;;;7.10;;
727;SDS011;347;48.780;9.158;2024-02-14T08:26:51;9.20;;;8.43;;
727;SDS011;347;48.780;9.158;2024-02-14T08:29:16;9.33;;;8.63;;
727;SDS011;347;48.780;9.158;2024-02-14T08:31:43;8.93;;;8.33;;
727;SDS011;347;48.780;9.158;2024-02-14T08:34:08;10.53;;;9.63;;
727;SDS011;347;48.780;9.158;2024-02-14T08:36:34;9.37;;;8.77;;
727;SDS011;347;48.780;9.158;2024-02-14T08:39:06;9.87;;;8.83;;
727;SDS011;347;48.780;9.158;2024-02-14T08:41:32;10.23;;;9.23;;
727;SDS011;347;48.780;9.158;2024-02-14T08:43:57;9.27;;;8.40;;
727;SDS011;347;48.780;9.158;2024-02-14T08:46:23;9.23;;;8.60;;
727;SDS011;347;48.780;9.158;2024-02-14T08:48:50;9.23;;;8.33;;
727;SDS011;347;48.780;9.158;2024-02-14T08:51:16;7.73;;;7.33;;
727;SDS011;347;48.780;9.158;2024-02-14T08:53:45;7.07;;;6.47;;
727;SDS011;347;48.780;9.158;2024-02-14T08:56:11;6.50;;;6.10;;
727;SDS011;347;48.780;9.158;2024-02-14T08:58:39;7.20;;;6.87;;
727;SDS011;347;48.780;9.158;2024-02-14T09:01:05;7.20;;;6.80;;
727;SDS011;347;48.780;9.158;2024-02-14T09:03:32;6.83;;;6.43;;
727;SDS011;347;48.780;9.158;2024-02-14T09:06:00;6.83;;;6.40;;
727;SDS011;347;48.780;9.158;2024-02-14T09:08:28;6.50;;;6.20;;
727;SDS011;347;48.780;9.158;2024-02-14T09:10:55;6.53;;;6.23;;
727;SDS011;347;48.780;9.158;2024-02-14T09:13:21;6.87;;;6.57;;
727;SDS011;347;48.780;9.158;2024-02-14T09:15:46;7.00;;;6.50;;
727;SDS011;347;48.780;9.158;2024-02-14T09:18:13;7.27;;;6.80;;
727;SDS011;347;48.780;9.158;2024-02-14T09:20:40;8.20;;;7.80;;
727;SDS011;347;48.780;9.158;2024-02-14T09:23:06;6.63;;;6.23;;
727;SDS011;347;48.780;9.158;2024-02-14T09:25:31;7.43;;;6.83;;
727;SDS011;347;48.780;9.158;2024-02-14T09:27:56;7.50;;;7.10;;
727;SDS011;347;48.780;9.158;2024-02-14T09:30:22;6.43;;;6.13;;
727;SDS011;347;48.780;9.158;2024-02-14T09:32:47;7.43;;;7.03;;
727;SDS011;347;48.780;9.158;2024-02-14T09:35:15;7.23;;;6.80;;
727;SDS011;347;48.780;9.158;2024-02-14T09:37:41;8.17;;;7.00;;
727;SDS011;347;48.780;9.158;2024-02-14T09:40:06;7.60;;;7.30;;
727;SDS011;347;48.780;9.158;2024-02-14T09:42:37;7.03;;;6.63;;
727;SDS011;347;48.780;9.158;2024-02-14T09:45:10;7.97;;;7.47;;
727;SDS011;347;48.780;9.158;2024-02-14T09:47:36;7.90;;;7.50;;
727;SDS011;347;48.780;9.158;2024-02-14T09:50:03;7.23;;;6.93;;
727;SDS011;347;48.780;9.158;2024-02-14T09:52:32;7.00;;;6.60;;
727;SDS011;347;48.780;9.158;2024-02-14T09:54:59;6.93;;;6.73;;
727;SDS011;347;48.780;9.158;2024-02-14T09:57:28;7.47;;;7.17;;
727;SDS011;347;48.780;9.158;2024-02-14T09:59:54;7.40;;;7.00;;
727;SDS011;347;48.780;9.158;2024-02-14T10:02:21;7.17;;;6.87;;
727;SDS011;347;48.780;9.158;2024-02-14T10:04:47;6.70;;;6.40;;
727;SDS011;347;48.780;9.158;2024-02-14T10:07:13;7.20;;;6.90;;
727;SDS011;347;48.780;9.158;2024-02-14T10:09:42;7.40;;;6.90;;
727;SDS011;347;48.780;9.158;2024-02-14T10:12:08;6.43;;;6.07;;
727;SDS011;347;48.780;9.158;2024-02-14T10:14:34;6.33;;;6.10;;
727;SDS011;347;48.780;9.158;2024-02-14T10:17:02;7.50;;;6.90;;
727;SDS011;347;48.780;9.158;2024-02-14T10:19:30;7.10;;;6.60;;
727;SDS011;347;48.780;9.158;2024-02-14T10:21:59;7.47;;;7.00;;
727;SDS011;347;48.780;9.158;2024-02-14T10:24:26;7.27;;;6.87;;
727;SDS011;347;48.780;9.158;2024-02-14T10:26:52;6.57;;;6.27;;
727;SDS011;347;48.780;9.158;2024-02-14T10:29:21;6.53;;;6.33;;
727;SDS011;347;48.780;9.158;2024-02-14T10:31:48;6.70;;;6.40;;
727;SDS011;347;48.780;9.158;2024-02-14T10:34:13;7.57;;;6.97;;
727;SDS011;347;48.780;9.158;2024-02-14T10:36:39;6.83;;;6.53;;
727;SDS011;347;48.780;9.158;2024-02-14T10:39:07;6.53;;;6.33;;
727;SDS011;347;48.780;9.158;2024-02-14T10:41:35;6.93;;;6.53;;
727;SDS011;347;48.780;9.158;2024-02-14T10:44:02;6.77;;;6.20;;
727;SDS011;347;48.780;9.158;2024-02-14T10:46:33;6.63;;;6.33;;
727;SDS011;347;48.780;9.158;2024-02-14T10:49:05;6.97;;;6.57;;
727;SDS011;347;48.780;9.158;2024-02-14T10:51:36;6.70;;;6.40;;
727;SDS011;347;48.780;9.158;2024-02-14T10:54:04;6.20;;;5.90;;
727;SDS011;347;48.780;9.158;2024-02-14T10:56:36;7.13;;;6.63;;
727;SDS011;347;48.780;9.158;2024-02-14T10:59:08;6.60;;;6.20;;
727;SDS011;347;48.780;9.158;2024-02-14T11:01:39;7.00;;;6.60;;
727;SDS011;347;48.780;9.158;2024-02-14T11:07:46;6.00;;;5.50;;
727;SDS011;347;48.780;9.158;2024-02-14T11:10:18;5.63;;;5.43;;
727;SDS011;347;48.780;9.158;2024-02-14T11:12:59;6.07;;;5.57;;
727;SDS011;347;48.780;9.158;2024-02-14T11:15:26;6.37;;;6.17;;
727;SDS011;347;48.780;9.158;2024-02-14T11:18:03;6.40;;;6.00;;
727;SDS011;347;48.780;9.158;2024-02-14T11:20:34;6.10;;;5.70;;
727;SDS011;347;48.780;9.158;2024-02-14T11:23:02;6.57;;;6.23;;
727;SDS011;347;48.780;9.158;2024-02-14T11:25:30;6.77;;;6.47;;
727;SDS011;347;48.780;9.158;2024-02-14T11:28:14;6.47;;;6.17;;
727;SDS011;347;48.780;9.158;2024-02-14T11:30:41;6.30;;;6.00;;
727;SDS011;347;48.780;9.158;2024-02-14T11:33:29;6.00;;;5.70;;
727;SDS011;347;48.780;9.158;2024-02-14T11:35:54;6.60;;;6.40;;
727;SDS011;347;48.780;9.158;2024-02-14T11:38:23;6.40;;;6.20;;
727;SDS011;347;48.780;9.158;2024-02-14T11:40:51;6.43;;;6.13;;
727;SDS011;347;48.780;9.158;2024-02-14T11:46:29;7.30;;;6.90;;
727;SDS011;347;48.780;9.158;2024-02-14T11:49:02;6.87;;;6.67;;
727;SDS011;347;48.780;9.158;2024-02-14T11:51:29;6.90;;;6.57;;
727;SDS011;347;48.780;9.158;2024-02-14T11:53:55;6.60;;;6.27;;
727;SDS011;347;48.780;9.158;2024-02-14T11:56:32;6.83;;;6.37;;
727;SDS011;347;48.780;9.158;2024-02-14T11:59:01;8.10;;;7.70;;
727;SDS011;347;48.780;9.158;2024-02-14T12:01:30;6.40;;;6.20;;
727;SDS011;347;48.780;9.158;2024-02-14T12:04:00;6.97;;;6.67;;
727;SDS011;347;48.780;9.158;2024-02-14T12:06:30;6.40;;;6.20;;
727;SDS011;347;48.780;9.158;2024-02-14T12:08:59;7.80;;;7.33;;
727;SDS011;347;48.780;9.158;2024-02-14T12:11:33;6.90;;;6.70;;
727;SDS011;347;48.780;9.158;2024-02-14T12:14:02;7.00;;;6.70;;
727;SDS011;347;48.780;9.158;2024-02-14T12:16:28;6.73;;;6.53;;
727;SDS011;347;48.780;9.158;2024-02-14T12:21:53;6.47;;;5.97;;
727;SDS011;347;48.780;9.158;2024-02-14T12:24:21;7.63;;;7.13;;
727;SDS011;347;48.780;9.158;2024-02-14T12:26:48;6.70;;;6.40;;
727;SDS011;347;48.780;9.158;2024-02-14T12:29:18;6.67;;;6.37;;
727;SDS011;347;48.780;9.158;2024-02-14T12:31:44;6.67;;;6.47;;
727;SDS011;347;48.780;9.158;2024-02-14T12:34:10;7.13;;;6.93;;
727;SDS011;347;48.780;9.158;2024-02-14T12:36:36;6.70;;;6.50;;
727;SDS011;347;48.780;9.158;2024-02-14T12:39:03;7.07;;;6.77;;
727;SDS011;347;48.780;9.158;2024-02-14T12:41:29;6.90;;;6.63;;
727;SDS011;347;48.780;9.158;2024-02-14T12:43:55;6.53;;;6.33;;
727;SDS011;347;48.780;9.158;2024-02-14T12:46:22;6.60;;;6.30;;
727;SDS011;347;48.780;9.158;2024-02-14T12:48:47;6.80;;;6.60;;
727;SDS011;347;48.780;9.158;2024-02-14T12:51:13;6.47;;;6.27;;
727;SDS011;347;48.780;9.158;2024-02-14T12:53:39;7.17;;;6.77;;
727;SDS011;347;48.780;9.158;2024-02-14T12:56:06;7.03;;;6.53;;
727;SDS011;347;48.780;9.158;2024-02-14T12:58:32;7.53;;;7.23;;
727;SDS011;347;48.780;9.158;2024-02-14T13:00:58;7.10;;;6.80;;
727;SDS011;347;48.780;9.158;2024-02-14T13:03:23;6.53;;;6.33;;
727;SDS011;347;48.780;9.158;2024-02-14T13:05:53;6.70;;;6.50;;
727;SDS011;347;48.780;9.158;2024-02-14T13:08:19;7.67;;;7.40;;
727;SDS011;347;48.780;9.158;2024-02-14T13:10:45;6.73;;;6.53;;
727;SDS011;347;48.780;9.158;2024-02-14T13:13:11;7.40;;;6.90;;
727;SDS011;347;48.780;9.158;2024-02-14T13:15:37;7.47;;;7.20;;
727;SDS011;347;48.780;9.158;2024-02-14T13:18:05;6.97;;;6.67;;
727;SDS011;347;48.780;9.158;2024-02-14T13:20:33;7.37;;;7.03;;
727;SDS011;347;48.780;9.158;2024-02-14T13:22:59;7.20;;;6.90;;
727;SDS011;347;48.780;9.158;2024-02-14T13:25:27;6.13;;;5.87;;
727;SDS011;347;48.780;9.158;2024-02-14T13:27:53;7.43;;;7.13;;
727;SDS011;347;48.780;9.158;2024-02-14T13:30:23;7.47;;;7.10;;
727;SDS011;347;48.780;9.158;2024-02-14T13:32:49;6.90;;;6.60;;
727;SDS011;347;48.780;9.158;2024-02-14T13:35:17;7.33;;;7.03;;
727;SDS011;347;48.780;9.158;2024-02-14T13:37:43;6.60;;;6.30;;
727;SDS011;347;48.780;9.158;2024-02-14T13:40:10;6.43;;;6.20;;
727;SDS011;347;48.780;9.158;2024-02-14T13:42:39;6.63;;;6.30;;
727;SDS011;347;48.780;9.158;2024-02-14T13:45:07;6.70;;;6.40;;
727;SDS011;347;48.780;9.158;2024-02-14T13:47:39;6.57;;;6.13;;
727;SDS011;347;48.780;9.158;2024-02-14T13:50:07;6.43;;;6.23;;
727;SDS011;347;48.780;9.158;2024-02-14T13:52:36;7.63;;;7.33;;
727;SDS011;347;48.780;9.158;2024-02-14T13:55:02;5.60;;;5.50;;
727;SDS011;347;48.780;9.158;2024-02-14T13:57:38;7.70;;;7.40;;
727;SDS011;347;48.780;9.158;2024-02-14T14:00:17;7.00;;;6.80;;
727;SDS011;347;48.780;9.158;2024-02-14T14:02:48;6.50;;;6.30;;
727;SDS011;347;48.780;9.158;2024-02-14T14:05:14;7.03;;;6.80;;
727;SDS011;347;48.780;9.158;2024-02-14T14:07:45;7.10;;;6.90;;
727;SDS011;347;48.780;9.158;2024-02-14T14:10:14;6.83;;;6.63;;
727;SDS011;347;48.780;9.158;2024-02-14T14:12:40;6.50;;;6.30;;
727;SDS011;347;48.780;9.158;2024-02-14T14:15:15;7.13;;;6.93;;
727;SDS011;347;48.780;9.158;2024-02-14T14:17:41;7.50;;;7.10;;
727;SDS011;347;48.780;9.158;2024-02-14T14:20:25;7.17;;;6.97;;
727;SDS011;347;48.780;9.158;2024-02-14T14:22:58;7.20;;;6.90;;
727;SDS011;347;48.780;9.158;2024-02-14T14:25:28;6.37;;;6.07;;
727;SDS011;347;48.780;9.158;2024-02-14T14:28:21;6.80;;;6.60;;
727;SDS011;347;48.780;9.158;2024-02-14T14:31:15;7.10;;;6.90;;
727;SDS011;347;48.780;9.158;2024-02-14T14:34:09;6.77;;;6.57;;
727;SDS011;347;48.780;9.158;2024-02-14T14:36:44;7.10;;;6.80;;
727;SDS011;347;48.780;9.158;2024-02-14T14:39:22;7.10;;;6.83;;
727;SDS011;347;48.780;9.158;2024-02-14T14:42:54;8.50;;;8.20;;
727;SDS011;347;48.780;9.158;2024-02-14T14:45:32;7.10;;;6.80;;
727;SDS011;347;48.780;9.158;2024-02-14T14:47:58;7.40;;;7.10;;
727;SDS011;347;48.780;9.158;2024-02-14T14:50:27;6.70;;;6.40;;
727;SDS011;347;48.780;9.158;2024-02-14T14:52:53;7.07;;;6.77;;
727;SDS011;347;48.780;9.158;2024-02-14T14:55:21;7.07;;;6.70;;
727;SDS011;347;48.780;9.158;2024-02-14T14:57:55;7.57;;;7.33;;
727;SDS011;347;48.780;9.158;2024-02-14T15:00:24;6.77;;;6.57;;
727;SDS011;347;48.780;9.158;2024-02-14T15:02:50;7.30;;;7.00;;
727;SDS011;347;48.780;9.158;2024-02-14T15:05:21;7.10;;;6.90;;
727;SDS011;347;48.780;9.158;2024-02-14T15:08:07;7.90;;;7.70;;
727;SDS011;347;48.780;9.158;2024-02-14T15:10:39;7.60;;;7.30;;
727;SDS011;347;48.780;9.158;2024-02-14T15:13:06;7.73;;;7.40;;
727;SDS011;347;48.780;9.158;2024-02-14T15:15:38;6.80;;;6.60;;
727;SDS011;347;48.780;9.158;2024-02-14T15:18:09;7.07;;;6.80;;
727;SDS011;347;48.780;9.158;2024-02-14T15:20:34;6.30;;;6.10;;
727;SDS011;347;48.780;9.158;2024-02-14T15:23:02;7.50;;;7.20;;
727;SDS011;347;48.780;9.158;2024-02-14T15:25:28;8.17;;;7.87;;
727;SDS011;347;48.780;9.158;2024-02-14T15:27:54;7.27;;;6.97;;
727;SDS011;347;48.780;9.158;2024-02-14T15:30:21;7.70;;;7.40;;
727;SDS011;347;48.780;9.158;2024-02-14T15:33:06;6.80;;;6.57;;
727;SDS011;347;48.780;9.158;2024-02-14T15:35:51;6.70;;;6.47;;
727;SDS011;347;48.780;9.158;2024-02-14T15:38:18;7.77;;;7.20;;
727;SDS011;347;48.780;9.158;2024-02-14T15:40:53;7.53;;;7.03;;
727;SDS011;347;48.780;9.158;2024-02-14T15:43:32;6.60;;;6.40;;
727;SDS011;347;48.780;9.158;2024-02-14T15:45:58;7.50;;;7.20;;
727;SDS011;347;48.780;9.158;2024-02-14T15:48:30;6.83;;;6.53;;
727;SDS011;347;48.780;9.158;2024-02-14T15:50:58;6.83;;;6.63;;
727;SDS011;347;48.780;9.158;2024-02-14T15:53:28;7.80;;;7.50;;
727;SDS011;347;48.780;9.158;2024-02-14T15:55:56;7.93;;;7.63;;
727;SDS011;347;48.780;9.158;2024-02-14T15:58:26;6.83;;;6.53;;
727;SDS011;347;48.780;9.158;2024-02-14T16:00:54;8.10;;;7.70;;
727;SDS011;347;48.780;9.158;2024-02-14T16:03:22;7.10;;;6.80;;
727;SDS011;347;48.780;9.158;2024-02-14T16:05:51;6.93;;;6.73;;